createdAt,value
2023-08-11T00:02:12.017Z,16.92
2023-08-11T00:04:39.342Z,19.27
2023-08-11T00:07:07.031Z,20.60
2023-08-11T00:09:34.517Z,19.88
2023-08-11T00:12:04.854Z,18.83
2023-08-11T00:14:32.943Z,21.88
2023-08-11T00:17:00.428Z,18.23
2023-08-11T00:19:28.240Z,21.88
2023-08-11T00:21:55.634Z,22.30
2023-08-11T00:24:22.869Z,21.55
2023-08-11T00:26:50.472Z,20.17
2023-08-11T00:29:18.051Z,23.65
2023-08-11T00:31:46.816Z,25.42
2023-08-11T00:34:14.615Z,19.25
2023-08-11T00:36:42.792Z,20.08
2023-08-11T00:39:10.660Z,21.73
2023-08-11T00:41:38.142Z,19.70
2023-08-11T00:44:06.176Z,20.13
2023-08-11T00:46:33.913Z,17.95
2023-08-11T00:49:02.236Z,18.13
2023-08-11T00:51:30.163Z,18.92
2023-08-11T00:53:59.060Z,21.75
2023-08-11T00:56:26.875Z,20.33
2023-08-11T00:58:56.040Z,26.60
2023-08-11T01:01:23.460Z,21.77
2023-08-11T01:03:51.972Z,19.23
2023-08-11T01:06:42.110Z,25.58
2023-08-11T01:09:17.820Z,17.98
2023-08-11T01:12:02.191Z,26.42
2023-08-11T01:14:39.698Z,24.48
2023-08-11T01:17:10.986Z,23.90
2023-08-11T01:19:39.664Z,19.52
2023-08-11T01:22:14.528Z,19.95
2023-08-11T01:24:44.653Z,18.75
2023-08-11T01:27:13.557Z,19.40
2023-08-11T01:29:41.542Z,21.38
2023-08-11T01:32:12.534Z,17.65
2023-08-11T01:34:40.077Z,17.85
2023-08-11T01:37:09.600Z,15.27
2023-08-11T01:39:37.272Z,20.13
2023-08-11T01:42:05.174Z,26.10
2023-08-11T01:44:33.870Z,25.02
2023-08-11T01:47:01.993Z,21.42
2023-08-11T01:49:31.240Z,24.70
2023-08-11T01:51:58.912Z,22.45
2023-08-11T01:54:27.709Z,29.55
2023-08-11T01:56:56.878Z,24.77
2023-08-11T01:59:24.617Z,22.33
2023-08-11T02:01:52.121Z,24.52
2023-08-11T02:04:21.691Z,24.83
2023-08-11T02:06:49.076Z,23.20
2023-08-11T02:09:17.074Z,21.45
2023-08-11T02:11:44.636Z,20.63
2023-08-11T02:14:12.043Z,24.15
2023-08-11T02:16:39.507Z,23.65
2023-08-11T02:19:26.680Z,31.33
2023-08-11T02:21:54.485Z,20.92
2023-08-11T02:24:21.673Z,23.17
2023-08-11T02:26:49.286Z,26.30
2023-08-11T02:29:16.615Z,23.33
2023-08-11T02:31:45.117Z,24.95
2023-08-11T02:34:12.420Z,20.95
2023-08-11T02:36:40.584Z,23.92
2023-08-11T02:39:07.984Z,21.58
2023-08-11T02:41:36.132Z,23.83
2023-08-11T02:44:04.132Z,26.15
2023-08-11T02:46:32.608Z,15.68
2023-08-11T02:48:59.735Z,20.55
2023-08-11T02:51:27.177Z,22.00
2023-08-11T02:53:55.234Z,20.42
2023-08-11T02:56:22.596Z,19.38
2023-08-11T02:58:51.012Z,20.38
2023-08-11T03:01:19.043Z,17.08
2023-08-11T03:03:46.755Z,17.63
2023-08-11T03:06:15.146Z,16.42
2023-08-11T03:08:43.289Z,19.35
2023-08-11T03:11:11.480Z,18.33
2023-08-11T03:13:38.923Z,18.55
2023-08-11T03:16:06.876Z,18.95
2023-08-11T03:18:35.020Z,14.80
2023-08-11T03:21:18.721Z,16.42
2023-08-11T03:23:48.576Z,13.40
2023-08-11T03:26:16.707Z,16.13
2023-08-11T03:28:44.005Z,19.10
2023-08-11T03:31:12.188Z,19.55
2023-08-11T03:33:43.304Z,13.60
2023-08-11T03:36:15.820Z,17.25
2023-08-11T03:38:45.162Z,14.30
2023-08-11T03:41:13.575Z,19.85
2023-08-11T03:43:41.275Z,18.75
2023-08-11T03:46:10.181Z,15.25
2023-08-11T03:48:39.318Z,15.23
2023-08-11T03:51:08.299Z,14.10
2023-08-11T03:53:36.101Z,18.10
2023-08-11T03:56:08.682Z,13.75
2023-08-11T03:58:42.013Z,14.32
2023-08-11T04:01:09.700Z,13.25
2023-08-11T04:03:38.298Z,12.18
2023-08-11T04:06:07.584Z,12.55
2023-08-11T04:08:34.876Z,12.05
2023-08-11T04:11:02.340Z,12.65
2023-08-11T04:13:29.754Z,14.73
2023-08-11T04:15:57.091Z,14.82
2023-08-11T04:18:27.486Z,16.10
2023-08-11T04:20:55.211Z,14.25
2023-08-11T04:23:22.577Z,14.07
2023-08-11T04:25:49.963Z,15.02
2023-08-11T04:28:17.660Z,18.15
2023-08-11T04:30:45.280Z,13.43
2023-08-11T04:33:13.790Z,14.43
2023-08-11T04:35:43.035Z,14.70
2023-08-11T04:38:11.744Z,11.85
2023-08-11T04:40:40.414Z,9.48
2023-08-11T04:43:07.786Z,9.00
2023-08-11T04:45:39.445Z,11.13
2023-08-11T04:48:07.686Z,12.07
2023-08-11T04:50:37.540Z,10.20
2023-08-11T04:53:05.612Z,11.20
2023-08-11T04:55:33.089Z,11.20
2023-08-11T04:58:03.050Z,14.45
2023-08-11T05:00:30.872Z,13.07
2023-08-11T05:02:58.956Z,11.13
2023-08-11T05:05:27.688Z,11.82
2023-08-11T05:07:55.524Z,10.93
2023-08-11T05:10:23.390Z,8.90
2023-08-11T05:12:50.898Z,11.52
2023-08-11T05:15:18.264Z,9.52
2023-08-11T05:17:46.602Z,12.20
2023-08-11T05:20:16.454Z,10.75
2023-08-11T05:22:48.950Z,12.10
2023-08-11T05:25:16.473Z,13.88
2023-08-11T05:27:43.843Z,10.70
2023-08-11T05:30:11.629Z,10.57
2023-08-11T05:32:38.976Z,10.23
2023-08-11T05:35:07.331Z,11.23
2023-08-11T05:37:34.729Z,8.45
2023-08-11T05:40:02.485Z,8.90
2023-08-11T05:42:31.578Z,9.98
2023-08-11T05:44:59.181Z,12.02
2023-08-11T05:47:26.638Z,9.27
2023-08-11T05:49:54.919Z,9.35
2023-08-11T05:52:22.358Z,9.32
2023-08-11T05:54:49.919Z,10.82
2023-08-11T05:57:17.557Z,14.73
2023-08-11T05:59:44.992Z,11.63
2023-08-11T06:02:12.357Z,11.13
2023-08-11T06:04:39.762Z,19.33
2023-08-11T06:07:07.606Z,10.40
2023-08-11T06:09:35.217Z,14.10
2023-08-11T06:12:02.686Z,11.95
2023-08-11T06:14:30.145Z,12.65
2023-08-11T06:17:00.105Z,11.32
2023-08-11T06:19:27.333Z,9.88
2023-08-11T06:21:55.982Z,10.13
2023-08-11T06:24:24.521Z,13.57
2023-08-11T06:26:53.104Z,10.63
2023-08-11T06:29:21.433Z,9.45
2023-08-11T06:31:49.229Z,10.25
2023-08-11T06:34:18.695Z,10.55
2023-08-11T06:36:49.246Z,11.95
2023-08-11T06:39:17.816Z,10.57
2023-08-11T06:41:45.504Z,12.18
2023-08-11T06:44:13.433Z,11.18
2023-08-11T06:46:40.730Z,11.52
2023-08-11T06:49:08.345Z,9.00
2023-08-11T06:51:35.785Z,8.00
2023-08-11T06:54:03.411Z,8.50
2023-08-11T06:56:31.146Z,11.57
2023-08-11T06:58:58.598Z,10.52
2023-08-11T07:01:27.057Z,9.25
2023-08-11T07:03:54.397Z,8.55
2023-08-11T07:06:21.936Z,9.75
2023-08-11T07:08:49.213Z,7.97
2023-08-11T07:11:16.866Z,9.15
2023-08-11T07:13:44.283Z,9.13
2023-08-11T07:16:11.852Z,10.75
2023-08-11T07:18:39.160Z,9.68
2023-08-11T07:21:06.412Z,8.98
2023-08-11T07:23:34.147Z,9.93
2023-08-11T07:26:03.860Z,7.55
2023-08-11T07:28:31.137Z,7.55
2023-08-11T07:30:58.814Z,7.65
2023-08-11T07:33:26.153Z,7.43
2023-08-11T07:35:53.432Z,8.88
2023-08-11T07:38:21.638Z,7.82
2023-08-11T07:40:49.723Z,8.48
2023-08-11T07:43:17.237Z,7.70
2023-08-11T07:45:44.959Z,8.88
2023-08-11T07:48:13.016Z,7.78
2023-08-11T07:50:41.164Z,8.73
2023-08-11T07:53:11.730Z,8.32
2023-08-11T07:55:39.015Z,9.80
2023-08-11T07:58:06.469Z,6.95
2023-08-11T08:00:34.029Z,7.18
2023-08-11T08:03:01.472Z,7.75
2023-08-11T08:05:29.198Z,7.03
2023-08-11T08:07:56.498Z,8.50
2023-08-11T08:10:24.221Z,7.05
2023-08-11T08:12:54.252Z,12.05
2023-08-11T08:15:21.804Z,8.60
2023-08-11T08:17:49.356Z,6.85
2023-08-11T08:20:17.653Z,7.22
2023-08-11T08:22:48.444Z,8.68
2023-08-11T08:25:16.466Z,10.68
2023-08-11T08:27:45.888Z,8.50
2023-08-11T08:30:16.651Z,7.35
2023-08-11T08:32:44.427Z,8.85
2023-08-11T08:35:12.138Z,9.20
2023-08-11T08:37:40.819Z,10.27
2023-08-11T08:40:09.928Z,13.70
2023-08-11T08:42:38.566Z,8.80
2023-08-11T08:45:07.145Z,10.13
2023-08-11T08:47:36.855Z,8.20
2023-08-11T08:50:06.699Z,9.10
2023-08-11T08:52:34.517Z,11.88
2023-08-11T08:55:04.075Z,10.27
2023-08-11T08:57:33.724Z,10.85
2023-08-11T09:00:01.535Z,11.20
2023-08-11T09:02:35.091Z,10.93
2023-08-11T09:05:02.833Z,15.13
2023-08-11T09:07:31.918Z,11.45
2023-08-11T09:09:59.812Z,11.90
2023-08-11T09:12:31.873Z,10.50
2023-08-11T09:15:02.974Z,9.70
2023-08-11T09:17:31.985Z,10.75
2023-08-11T09:20:00.773Z,12.07
2023-08-11T09:22:28.874Z,11.35
2023-08-11T09:24:57.127Z,11.45
2023-08-11T09:27:24.592Z,13.52
2023-08-11T09:29:52.270Z,14.35
2023-08-11T09:32:24.842Z,12.23
2023-08-11T09:34:57.753Z,13.55
2023-08-11T09:37:25.402Z,12.23
2023-08-11T09:39:57.459Z,14.43
2023-08-11T09:42:27.973Z,11.57
2023-08-11T09:44:55.382Z,11.25
2023-08-11T09:47:23.265Z,12.48
2023-08-11T09:49:51.123Z,10.25
2023-08-11T09:52:18.771Z,10.27
2023-08-11T09:54:50.436Z,10.05
2023-08-11T09:57:20.378Z,12.97
2023-08-11T09:59:49.200Z,12.32
2023-08-11T10:02:25.589Z,11.63
2023-08-11T10:05:08.338Z,14.80
2023-08-11T10:07:43.458Z,12.20
2023-08-11T10:10:14.350Z,13.30
2023-08-11T10:12:49.339Z,14.13
2023-08-11T10:15:20.941Z,11.93
2023-08-11T10:17:49.796Z,13.73
2023-08-11T10:20:18.123Z,9.82
2023-08-11T10:22:46.171Z,12.32
2023-08-11T10:25:13.849Z,15.15
2023-08-11T10:27:42.340Z,13.73
2023-08-11T10:30:12.196Z,13.73
2023-08-11T10:32:40.206Z,12.77
2023-08-11T10:35:33.990Z,12.07
2023-08-11T10:38:01.617Z,11.68
2023-08-11T10:40:36.651Z,14.15
2023-08-11T10:43:05.722Z,11.07
2023-08-11T10:45:35.248Z,11.95
2023-08-11T10:48:10.455Z,15.35
2023-08-11T10:50:39.450Z,17.02
2023-08-11T10:53:07.004Z,13.50
2023-08-11T10:55:37.927Z,11.68
2023-08-11T10:58:18.791Z,12.57
2023-08-11T11:00:46.168Z,15.77
2023-08-11T11:03:13.917Z,12.05
2023-08-11T11:05:44.594Z,12.50
2023-08-11T11:08:12.526Z,16.88
2023-08-11T11:10:49.313Z,15.70
2023-08-11T11:13:18.783Z,11.98
2023-08-11T11:15:46.538Z,13.45
2023-08-11T11:18:14.235Z,11.18
2023-08-11T11:20:41.782Z,13.95
2023-08-11T11:23:09.305Z,12.70
2023-08-11T11:25:36.544Z,14.55
2023-08-11T11:28:05.033Z,13.63
2023-08-11T11:30:35.288Z,11.70
2023-08-11T11:33:04.791Z,13.30
2023-08-11T11:35:32.982Z,13.73
2023-08-11T11:38:00.669Z,11.57
2023-08-11T11:40:30.802Z,10.07
2023-08-11T11:42:58.528Z,13.02
2023-08-11T11:45:27.610Z,14.98
2023-08-11T11:47:55.345Z,11.77
2023-08-11T11:50:23.365Z,16.30
2023-08-11T11:52:51.050Z,11.27
2023-08-11T11:55:18.750Z,15.35
2023-08-11T11:57:47.152Z,17.10
2023-08-11T12:00:17.940Z,16.20
2023-08-11T12:02:47.988Z,15.02
2023-08-11T12:05:15.945Z,13.85
2023-08-11T12:07:43.530Z,12.02
2023-08-11T12:10:11.170Z,15.80
2023-08-11T12:12:38.711Z,15.80
2023-08-11T12:15:08.880Z,13.60
2023-08-11T12:17:39.264Z,12.43
2023-08-11T12:20:16.627Z,14.85
2023-08-11T12:22:43.942Z,14.45
2023-08-11T12:25:13.495Z,12.18
2023-08-11T12:27:41.963Z,19.98
2023-08-11T12:30:14.000Z,14.00
2023-08-11T12:32:43.956Z,12.38
2023-08-11T12:35:16.058Z,14.23
2023-08-11T12:37:43.632Z,17.52
2023-08-11T12:40:11.451Z,14.20
2023-08-11T12:42:38.827Z,15.60
2023-08-11T12:45:08.538Z,15.93
2023-08-11T12:47:36.050Z,15.70
2023-08-11T12:50:04.818Z,18.10
2023-08-11T12:52:32.639Z,16.58
2023-08-11T12:54:59.850Z,17.05
2023-08-11T12:57:27.404Z,13.30
2023-08-11T12:59:54.828Z,15.13
2023-08-11T13:02:22.152Z,16.20
2023-08-11T13:04:49.653Z,15.30
2023-08-11T13:07:17.049Z,13.80
2023-08-11T13:09:44.319Z,16.02
2023-08-11T13:12:13.742Z,17.75
2023-08-11T13:14:42.296Z,15.57
2023-08-11T13:17:11.890Z,16.60
2023-08-11T13:19:42.180Z,14.30
2023-08-11T13:22:10.477Z,13.50
2023-08-11T13:24:38.412Z,21.13
2023-08-11T13:27:06.150Z,15.65
2023-08-11T13:29:33.538Z,17.05
2023-08-11T13:32:01.018Z,15.00
2023-08-11T13:34:28.585Z,19.00
2023-08-11T13:36:56.283Z,14.15
2023-08-11T13:39:23.436Z,16.52
2023-08-11T13:41:50.866Z,11.38
2023-08-11T13:44:18.168Z,21.38
2023-08-11T13:46:45.894Z,16.95
2023-08-11T13:49:13.171Z,16.30
2023-08-11T13:51:40.830Z,17.88
2023-08-11T13:54:08.260Z,19.90
2023-08-11T13:56:35.647Z,17.58
2023-08-11T13:59:03.797Z,17.58
2023-08-11T14:01:31.456Z,13.55
2023-08-11T14:03:59.062Z,20.52
2023-08-11T14:06:26.472Z,16.90
2023-08-11T14:08:54.046Z,13.95
2023-08-11T14:11:25.031Z,16.23
2023-08-11T14:13:52.724Z,14.82
2023-08-11T14:16:20.974Z,12.68
2023-08-11T14:18:48.478Z,16.95
2023-08-11T14:21:15.864Z,18.63
2023-08-11T14:23:43.534Z,17.73
2023-08-11T14:26:13.828Z,19.70
2023-08-11T14:28:41.345Z,15.77
2023-08-11T14:31:11.290Z,20.25
2023-08-11T14:33:43.115Z,14.18
2023-08-11T14:36:13.293Z,15.95
2023-08-11T14:38:41.493Z,18.70
2023-08-11T14:41:08.860Z,14.35
2023-08-11T14:43:36.165Z,13.65
2023-08-11T14:46:03.794Z,14.95
2023-08-11T14:48:31.120Z,15.15
2023-08-11T14:50:58.902Z,16.98
2023-08-11T14:53:30.065Z,14.27
2023-08-11T14:55:57.637Z,12.70
2023-08-11T14:58:25.244Z,16.73
2023-08-11T15:00:52.974Z,15.45
2023-08-11T15:03:20.680Z,15.95
2023-08-11T15:05:48.105Z,16.30
2023-08-11T15:08:19.043Z,15.55
2023-08-11T15:10:46.481Z,16.70
2023-08-11T15:13:16.933Z,16.90
2023-08-11T15:15:44.498Z,14.77
2023-08-11T15:18:11.850Z,17.13
2023-08-11T15:20:39.454Z,18.58
2023-08-11T15:23:06.918Z,16.70
2023-08-11T15:25:34.202Z,15.27
2023-08-11T15:28:01.582Z,13.25
2023-08-11T15:30:28.924Z,12.80
2023-08-11T15:32:56.459Z,10.98
2023-08-11T15:35:25.059Z,13.00
2023-08-11T15:37:52.719Z,18.83
2023-08-11T15:40:20.293Z,17.98
2023-08-11T15:42:47.685Z,12.90
2023-08-11T15:45:17.506Z,11.70
2023-08-11T15:47:45.025Z,15.65
2023-08-11T15:50:12.503Z,12.70
2023-08-11T15:52:42.791Z,12.48
2023-08-11T15:55:10.081Z,18.52
2023-08-11T15:57:37.614Z,14.45
2023-08-11T16:00:09.378Z,12.32
2023-08-11T16:02:39.832Z,13.65
2023-08-11T16:05:10.630Z,10.43
2023-08-11T16:07:39.225Z,9.57
2023-08-11T16:10:07.330Z,12.18
2023-08-11T16:12:35.742Z,9.07
2023-08-11T16:15:04.065Z,13.13
2023-08-11T16:17:36.446Z,11.73
2023-08-11T16:20:08.433Z,13.77
2023-08-11T16:22:35.846Z,14.32
2023-08-11T16:25:06.016Z,15.07
2023-08-11T16:27:34.627Z,10.75
2023-08-11T16:30:02.809Z,15.45
2023-08-11T16:32:32.887Z,15.23
2023-08-11T16:35:04.791Z,13.25
2023-08-11T16:37:34.882Z,16.30
2023-08-11T16:40:06.158Z,13.50
2023-08-11T16:42:33.584Z,16.10
2023-08-11T16:45:09.786Z,17.02
2023-08-11T16:47:40.237Z,19.95
2023-08-11T16:50:08.549Z,17.50
2023-08-11T16:52:36.035Z,16.25
2023-08-11T16:55:04.330Z,19.95
2023-08-11T16:57:31.725Z,26.70
2023-08-11T16:59:59.225Z,19.45
2023-08-11T17:02:26.840Z,22.23
2023-08-11T17:04:56.684Z,18.27
2023-08-11T17:07:25.321Z,23.20
2023-08-11T17:09:52.736Z,20.27
2023-08-11T17:12:20.147Z,22.88
2023-08-11T17:14:47.579Z,23.08
2023-08-11T17:17:14.913Z,19.08
2023-08-11T17:19:42.155Z,23.35
2023-08-11T17:22:11.931Z,19.67
2023-08-11T17:24:39.838Z,22.90
2023-08-11T17:27:08.333Z,21.52
2023-08-11T17:29:35.704Z,16.33
2023-08-11T17:32:08.583Z,19.30
2023-08-11T17:34:50.429Z,21.17
2023-08-11T17:37:25.170Z,17.58
2023-08-11T17:39:56.397Z,20.33
2023-08-11T17:42:24.001Z,17.02
2023-08-11T17:44:51.504Z,23.67
2023-08-11T17:47:21.851Z,18.65
2023-08-11T17:49:49.436Z,20.50
2023-08-11T17:52:18.669Z,16.33
2023-08-11T17:54:48.804Z,19.33
2023-08-11T17:57:25.328Z,15.82
2023-08-11T17:59:53.028Z,18.20
2023-08-11T18:02:20.614Z,21.88
2023-08-11T18:04:49.118Z,17.73
2023-08-11T18:07:16.681Z,17.58
2023-08-11T18:09:46.616Z,22.63
2023-08-11T18:12:16.149Z,17.48
2023-08-11T18:15:02.349Z,15.05
2023-08-11T18:17:32.246Z,17.38
2023-08-11T18:20:00.055Z,15.77
2023-08-11T18:22:27.647Z,16.27
2023-08-11T18:24:55.076Z,20.23
2023-08-11T18:27:22.306Z,18.25
2023-08-11T18:29:49.897Z,19.20
2023-08-11T18:32:17.367Z,15.80
2023-08-11T18:34:44.780Z,18.13
2023-08-11T18:37:12.343Z,16.88
2023-08-11T18:39:40.054Z,16.27
2023-08-11T18:42:07.816Z,18.20
2023-08-11T18:44:35.182Z,20.20
2023-08-11T18:47:02.724Z,15.50
2023-08-11T18:49:30.174Z,18.55
2023-08-11T18:51:57.597Z,14.50
2023-08-11T18:54:24.948Z,19.15
2023-08-11T18:56:54.476Z,18.27
2023-08-11T18:59:22.156Z,16.85
2023-08-11T19:01:49.649Z,18.77
2023-08-11T19:04:18.498Z,19.08
2023-08-11T19:06:45.894Z,14.73
2023-08-11T19:09:14.162Z,16.83
2023-08-11T19:11:42.045Z,19.48
2023-08-11T19:14:09.930Z,23.52
2023-08-11T19:16:37.785Z,14.75
2023-08-11T19:19:05.635Z,16.55
2023-08-11T19:21:36.149Z,14.43
2023-08-11T19:24:04.992Z,15.80
2023-08-11T19:26:32.342Z,14.73
2023-08-11T19:29:02.657Z,13.07
2023-08-11T19:31:30.195Z,14.10
2023-08-11T19:33:57.604Z,11.38
2023-08-11T19:36:25.076Z,13.93
2023-08-11T19:38:52.487Z,13.95
2023-08-11T19:41:19.894Z,10.05
2023-08-11T19:43:49.472Z,12.57
2023-08-11T19:46:17.084Z,15.27
2023-08-11T19:48:44.351Z,16.42
2023-08-11T19:51:12.038Z,12.05
2023-08-11T19:53:39.490Z,13.40
2023-08-11T19:56:06.861Z,9.73
2023-08-11T19:58:34.539Z,14.05
2023-08-11T20:01:01.965Z,13.25
2023-08-11T20:03:32.070Z,12.75
2023-08-11T20:05:59.467Z,16.77
2023-08-11T20:08:26.975Z,15.80
2023-08-11T20:10:54.399Z,16.92
2023-08-11T20:13:21.607Z,15.23
2023-08-11T20:15:48.918Z,15.82
2023-08-11T20:18:19.742Z,16.95
2023-08-11T20:20:47.137Z,18.90
2023-08-11T20:23:17.587Z,20.55
2023-08-11T20:25:45.171Z,10.90
2023-08-11T20:28:12.656Z,13.35
2023-08-11T20:30:45.786Z,10.48
2023-08-11T20:33:13.327Z,12.65
2023-08-11T20:35:47.945Z,14.45
2023-08-11T20:38:15.243Z,13.63
2023-08-11T20:40:42.693Z,13.32
2023-08-11T20:43:09.899Z,12.77
2023-08-11T20:45:37.462Z,19.75
2023-08-11T20:48:05.132Z,11.52
2023-08-11T20:50:35.825Z,11.70
2023-08-11T20:53:03.299Z,10.60
2023-08-11T20:55:33.508Z,13.48
2023-08-11T20:58:00.851Z,13.10
2023-08-11T21:00:28.316Z,16.02
2023-08-11T21:02:55.776Z,16.92
2023-08-11T21:05:23.131Z,15.02
2023-08-11T21:07:50.660Z,18.00
2023-08-11T21:10:18.264Z,16.70
2023-08-11T21:12:45.564Z,14.65
2023-08-11T21:15:13.733Z,16.95
2023-08-11T21:17:41.295Z,14.45
2023-08-11T21:20:09.591Z,11.93
2023-08-11T21:22:36.977Z,12.02
2023-08-11T21:25:04.482Z,12.98
2023-08-11T21:27:32.219Z,14.27
2023-08-11T21:29:59.788Z,13.05
2023-08-11T21:32:27.141Z,12.90
2023-08-11T21:34:57.298Z,12.15
2023-08-11T21:37:24.915Z,11.95
2023-08-11T21:40:05.012Z,16.40
2023-08-11T21:42:35.498Z,15.35
2023-08-11T21:45:03.019Z,14.45
2023-08-11T21:47:33.769Z,14.10
2023-08-11T21:50:04.335Z,14.02
2023-08-11T21:52:31.761Z,17.52
2023-08-11T21:54:59.230Z,14.45
2023-08-11T21:57:29.772Z,16.05
2023-08-11T21:59:57.115Z,13.90
2023-08-11T22:02:24.539Z,16.02
2023-08-11T22:04:57.736Z,14.10
2023-08-11T22:07:27.085Z,17.80
2023-08-11T22:09:54.506Z,15.95
2023-08-11T22:12:21.912Z,13.88
2023-08-11T22:14:49.501Z,18.55
2023-08-11T22:17:19.901Z,14.80
2023-08-11T22:19:47.453Z,15.68
2023-08-11T22:22:17.722Z,19.75
2023-08-11T22:24:45.207Z,14.40
2023-08-11T22:27:15.992Z,13.18
2023-08-11T22:29:45.430Z,12.45
2023-08-11T22:32:14.308Z,15.93
2023-08-11T22:34:41.680Z,16.63
2023-08-11T22:37:12.116Z,18.55
2023-08-11T22:39:42.754Z,17.67
2023-08-11T22:42:10.227Z,17.30
2023-08-11T22:44:39.401Z,16.00
2023-08-11T22:47:06.784Z,15.27
2023-08-11T22:49:34.013Z,16.23
2023-08-11T22:52:01.373Z,24.23
2023-08-11T22:54:31.592Z,20.73
2023-08-11T22:56:59.043Z,16.75
2023-08-11T22:59:26.594Z,18.00
2023-08-11T23:01:54.143Z,18.00
2023-08-11T23:04:21.581Z,22.38
2023-08-11T23:06:49.112Z,14.50
2023-08-11T23:09:16.915Z,17.98
2023-08-11T23:11:46.138Z,19.60
2023-08-11T23:14:13.873Z,15.18
2023-08-11T23:16:41.055Z,15.40
2023-08-11T23:19:08.685Z,16.80
2023-08-11T23:21:43.758Z,16.45
2023-08-11T23:24:11.524Z,21.38
2023-08-11T23:26:40.748Z,15.27
2023-08-11T23:29:08.191Z,17.50
2023-08-11T23:31:35.768Z,17.20
2023-08-11T23:34:04.134Z,19.27
2023-08-11T23:36:31.399Z,16.15
2023-08-11T23:38:58.806Z,15.50
2023-08-11T23:41:26.691Z,12.30
2023-08-11T23:43:54.088Z,12.18
2023-08-11T23:46:21.444Z,16.17
2023-08-11T23:48:48.750Z,16.52
2023-08-11T23:51:16.353Z,13.93
2023-08-11T23:53:44.095Z,17.58
2023-08-11T23:56:11.469Z,17.33
2023-08-11T23:58:38.648Z,15.38
